PWSweather.com
Personal Weather Stations
Station Observations
DW6827
Bills, Chadron, NE 69337

BillsChadron, NE 69337

Lat: 42.8275, Lon: -103.0094

Elevation: 3367

Station Type: Davis Vantage pro 2

http://billandcorena.com/weatherdisplay.htm

Latest ConditionsUpdated 2:50:01 PM MST Sunday, Jan 19, 2020
Currently Today's Max Today's Min Today's Average
Temperature 41.2°F5.1°C 41.2°F5.1°C 10.4°F-12.0°C 24.1°F-4.4°C
Dew Point 22.0°F-5.6°C 22.6°F-5.2°C 6.3°F-14.3°C 14.0°F-10.0°C
Winds 7.0 mph W11.3 kmh W 10.0 mph -16.1 kmh - - 2.7 mph 4.3 kmh
Wind Gusts 10.0 mph16.1 kmh 17.0 mph27.4 kmh - -
Humidity 46% 84% 46% 66%
Pressure 30.58 in1035.6 mb 30.69 in1039.3 mb 30.58 in1035.6 mb -
Hour Temp Dew Point Humidity Winds Wind Gusts Pressure Precip Precip Rate Daily Precip Total
02:50 PM 41.2°F5.1°C 22.0°F-5.6°C 46% 7.0 mph W11.3 kmh W 10.0 mph16.1 kmh 30.58 in1035.6 mb 0.00 in0.0 mm 0.00 in0.0 mm 0.00 in0.0 mm
02:40 PM 40.8°F4.9°C 22.6°F-5.2°C 48% 6.0 mph W9.7 kmh W 9.0 mph14.5 kmh 30.58 in1035.6 mb 0.00 in0.0 mm 0.00 in0.0 mm 0.00 in0.0 mm
02:30 PM 40.5°F4.7°C 22.3°F-5.4°C 48% 7.0 mph WSW11.3 kmh WSW 10.0 mph16.1 kmh 30.58 in1035.6 mb 0.00 in0.0 mm 0.00 in0.0 mm 0.00 in0.0 mm
02:20 PM 40.5°F4.7°C 21.8°F-5.7°C 47% 8.0 mph WSW12.9 kmh WSW 11.0 mph17.7 kmh 30.59 in1035.9 mb 0.00 in0.0 mm 0.00 in0.0 mm 0.00 in0.0 mm
02:10 PM 40.6°F4.8°C 22.4°F-5.3°C 48% 6.0 mph WSW9.7 kmh WSW 10.0 mph16.1 kmh 30.59 in1035.9 mb 0.00 in0.0 mm 0.00 in0.0 mm 0.00 in0.0 mm
02:00 PM 40.6°F4.8°C 21.9°F-5.6°C 47% 9.0 mph WSW14.5 kmh WSW 13.0 mph20.9 kmh 30.59 in1035.9 mb 0.00 in0.0 mm 0.00 in0.0 mm 0.00 in0.0 mm
01:50 PM 40.5°F4.7°C 22.3°F-5.4°C 48% 10.0 mph WSW16.1 kmh WSW 16.0 mph25.7 kmh 30.59 in1035.9 mb 0.00 in0.0 mm 0.00 in0.0 mm 0.00 in0.0 mm
01:40 PM 40.7°F4.8°C 22.5°F-5.3°C 48% 9.0 mph WSW14.5 kmh WSW 14.0 mph22.5 kmh 30.59 in1035.9 mb 0.00 in0.0 mm 0.00 in0.0 mm 0.00 in0.0 mm
01:30 PM 40.8°F4.9°C 21.6°F-5.8°C 46% 10.0 mph WSW16.1 kmh WSW 17.0 mph27.4 kmh 30.60 in1036.2 mb 0.00 in0.0 mm 0.00 in0.0 mm 0.00 in0.0 mm
01:20 PM 40.7°F4.8°C 22.0°F-5.6°C 47% 9.0 mph WSW14.5 kmh WSW 16.0 mph25.7 kmh 30.60 in1036.2 mb 0.00 in0.0 mm 0.00 in0.0 mm 0.00 in0.0 mm
01:10 PM 40.2°F4.6°C 22.5°F-5.3°C 49% 7.0 mph WSW11.3 kmh WSW 11.0 mph17.7 kmh 30.60 in1036.2 mb 0.00 in0.0 mm 0.00 in0.0 mm 0.00 in0.0 mm
01:00 PM 39.7°F4.3°C 22.6°F-5.2°C 50% 4.0 mph SW6.4 kmh SW 6.0 mph9.7 kmh 30.61 in1036.6 mb 0.00 in0.0 mm 0.00 in0.0 mm 0.00 in0.0 mm
12:50 PM 38.9°F3.8°C 21.3°F-5.9°C 49% 3.0 mph SW4.8 kmh SW 5.0 mph8.0 kmh 30.61 in1036.6 mb 0.00 in0.0 mm 0.00 in0.0 mm 0.00 in0.0 mm
12:40 PM 38.3°F3.5°C 21.3°F-5.9°C 50% 4.0 mph SW6.4 kmh SW 6.0 mph9.7 kmh 30.61 in1036.6 mb 0.00 in0.0 mm 0.00 in0.0 mm 0.00 in0.0 mm
12:30 PM 37.7°F3.2°C 21.2°F-6.0°C 51% 3.0 mph SW4.8 kmh SW 5.0 mph8.0 kmh 30.62 in1036.9 mb 0.00 in0.0 mm 0.00 in0.0 mm 0.00 in0.0 mm
12:20 PM 37.3°F2.9°C 21.3°F-5.9°C 52% 4.0 mph WSW6.4 kmh WSW 5.0 mph8.0 kmh 30.62 in1036.9 mb 0.00 in0.0 mm 0.00 in0.0 mm 0.00 in0.0 mm
12:10 PM 36.8°F2.7°C 22.1°F-5.5°C 55% 3.0 mph SSW4.8 kmh SSW 5.0 mph8.0 kmh 30.63 in1037.3 mb 0.00 in0.0 mm 0.00 in0.0 mm 0.00 in0.0 mm
12:00 PM 36.4°F2.4°C 21.3°F-5.9°C 54% 3.0 mph WSW4.8 kmh WSW 5.0 mph8.0 kmh 30.64 in1037.6 mb 0.00 in0.0 mm 0.00 in0.0 mm 0.00 in0.0 mm
11:50 AM 35.9°F2.2°C 22.1°F-5.5°C 57% 3.0 mph SW4.8 kmh SW 4.0 mph6.4 kmh 30.64 in1037.6 mb 0.00 in0.0 mm 0.00 in0.0 mm 0.00 in0.0 mm
11:40 AM 34.9°F1.6°C 21.6°F-5.8°C 58% 5.0 mph SW8.0 kmh SW 7.0 mph11.3 kmh 30.65 in1037.9 mb 0.00 in0.0 mm 0.00 in0.0 mm 0.00 in0.0 mm
11:30 AM 33.9°F1.1°C 20.7°F-6.3°C 58% 5.0 mph SW8.0 kmh SW 7.0 mph11.3 kmh 30.65 in1037.9 mb 0.00 in0.0 mm 0.00 in0.0 mm 0.00 in0.0 mm
11:20 AM 33.3°F0.7°C 20.9°F-6.2°C 60% 4.0 mph SW6.4 kmh SW 7.0 mph11.3 kmh 30.65 in1037.9 mb 0.00 in0.0 mm 0.00 in0.0 mm 0.00 in0.0 mm
11:10 AM 32.4°F0.2°C 20.0°F-6.7°C 60% 6.0 mph S9.7 kmh S 8.0 mph12.9 kmh 30.66 in1038.3 mb 0.00 in0.0 mm 0.00 in0.0 mm 0.00 in0.0 mm
11:00 AM 31.7°F-0.2°C 19.4°F-7.0°C 60% 4.0 mph SW6.4 kmh SW 6.0 mph9.7 kmh 30.67 in1038.6 mb 0.00 in0.0 mm 0.00 in0.0 mm 0.00 in0.0 mm
10:50 AM 31.3°F-0.4°C 19.4°F-7.0°C 61% 6.0 mph SW9.7 kmh SW 8.0 mph12.9 kmh 30.68 in1038.9 mb 0.00 in0.0 mm 0.00 in0.0 mm 0.00 in0.0 mm
10:40 AM 30.8°F-0.7°C 18.9°F-7.3°C 61% 6.0 mph SW9.7 kmh SW 8.0 mph12.9 kmh 30.68 in1038.9 mb 0.00 in0.0 mm 0.00 in0.0 mm 0.00 in0.0 mm
10:30 AM 30.6°F-0.8°C 18.7°F-7.4°C 61% 6.0 mph SW9.7 kmh SW 8.0 mph12.9 kmh 30.68 in1038.9 mb 0.00 in0.0 mm 0.00 in0.0 mm 0.00 in0.0 mm
10:20 AM 30.0°F-1.1°C 18.2°F-7.7°C 61% 3.0 mph SW4.8 kmh SW 5.0 mph8.0 kmh 30.69 in1039.3 mb 0.00 in0.0 mm 0.00 in0.0 mm 0.00 in0.0 mm
10:10 AM 29.4°F-1.4°C 18.0°F-7.8°C 62% 5.0 mph SW8.0 kmh SW 7.0 mph11.3 kmh 30.69 in1039.3 mb 0.00 in0.0 mm 0.00 in0.0 mm 0.00 in0.0 mm
10:00 AM 28.8°F-1.8°C 17.0°F-8.3°C 61% 4.0 mph SW6.4 kmh SW 7.0 mph11.3 kmh 30.68 in1038.9 mb 0.00 in0.0 mm 0.00 in0.0 mm 0.00 in0.0 mm
09:50 AM 28.4°F-2.0°C 16.3°F-8.7°C 60% 4.0 mph SSW6.4 kmh SSW 6.0 mph9.7 kmh 30.68 in1038.9 mb 0.00 in0.0 mm 0.00 in0.0 mm 0.00 in0.0 mm
09:40 AM 27.8°F-2.3°C 16.5°F-8.6°C 62% 5.0 mph S8.0 kmh S 9.0 mph14.5 kmh 30.68 in1038.9 mb 0.00 in0.0 mm 0.00 in0.0 mm 0.00 in0.0 mm
09:30 AM 26.3°F-3.2°C 15.8°F-9.0°C 64% 4.0 mph S6.4 kmh S 5.0 mph8.0 kmh 30.68 in1038.9 mb 0.00 in0.0 mm 0.00 in0.0 mm 0.00 in0.0 mm
09:20 AM 25.0°F-3.9°C 15.2°F-9.3°C 66% 2.0 mph S3.2 kmh S 4.0 mph6.4 kmh 30.68 in1038.9 mb 0.00 in0.0 mm 0.00 in0.0 mm 0.00 in0.0 mm
09:10 AM 23.6°F-4.7°C 14.2°F-9.9°C 67% 2.0 mph S3.2 kmh S 3.0 mph4.8 kmh 30.68 in1038.9 mb 0.00 in0.0 mm 0.00 in0.0 mm 0.00 in0.0 mm
09:00 AM 22.3°F-5.4°C 14.3°F-9.8°C 71% 2.0 mph S3.2 kmh S 3.0 mph4.8 kmh 30.68 in1038.9 mb 0.00 in0.0 mm 0.00 in0.0 mm 0.00 in0.0 mm
08:50 AM 18.9°F-7.3°C 13.2°F-10.4°C 78% 1.0 mph S1.6 kmh S 2.0 mph3.2 kmh 30.69 in1039.3 mb 0.00 in0.0 mm 0.00 in0.0 mm 0.00 in0.0 mm
08:40 AM 16.2°F-8.8°C 10.8°F-11.8°C 79% Calm Calm -- 30.68 in1038.9 mb 0.00 in0.0 mm 0.00 in0.0 mm 0.00 in0.0 mm
08:30 AM 14.9°F-9.5°C 9.6°F-12.4°C 79% Calm Calm -- 30.68 in1038.9 mb 0.00 in0.0 mm 0.00 in0.0 mm 0.00 in0.0 mm
08:20 AM 14.4°F-9.8°C 9.4°F-12.6°C 80% Calm Calm -- 30.69 in1039.3 mb 0.00 in0.0 mm 0.00 in0.0 mm 0.00 in0.0 mm
08:10 AM 14.6°F-9.7°C 9.6°F-12.4°C 80% 1.0 mph SW1.6 kmh SW 1.0 mph1.6 kmh 30.69 in1039.3 mb 0.00 in0.0 mm 0.00 in0.0 mm 0.00 in0.0 mm
08:00 AM 13.7°F-10.2°C 9.2°F-12.7°C 82% Calm Calm -- 30.68 in1038.9 mb 0.00 in0.0 mm 0.00 in0.0 mm 0.00 in0.0 mm
07:50 AM 12.2°F-11.0°C 8.3°F-13.2°C 84% Calm Calm -- 30.67 in1038.6 mb 0.00 in0.0 mm 0.00 in0.0 mm 0.00 in0.0 mm
07:40 AM 10.8°F-11.8°C 6.9°F-13.9°C 84% Calm Calm -- 30.66 in1038.3 mb 0.00 in0.0 mm 0.00 in0.0 mm 0.00 in0.0 mm
07:30 AM 10.7°F-11.8°C 6.8°F-14.0°C 84% Calm Calm -- 30.66 in1038.3 mb 0.00 in0.0 mm 0.00 in0.0 mm 0.00 in0.0 mm
07:20 AM 10.4°F-12.0°C 6.3°F-14.3°C 83% Calm Calm -- 30.66 in1038.3 mb 0.00 in0.0 mm 0.00 in0.0 mm 0.00 in0.0 mm
07:10 AM 10.8°F-11.8°C 6.7°F-14.1°C 83% Calm Calm -- 30.65 in1037.9 mb 0.00 in0.0 mm 0.00 in0.0 mm 0.00 in0.0 mm
07:00 AM 10.9°F-11.7°C 6.5°F-14.2°C 82% Calm Calm -- 30.64 in1037.6 mb 0.00 in0.0 mm 0.00 in0.0 mm 0.00 in0.0 mm
06:50 AM 11.0°F-11.7°C 6.3°F-14.3°C 81% Calm Calm -- 30.64 in1037.6 mb 0.00 in0.0 mm 0.00 in0.0 mm 0.00 in0.0 mm
06:40 AM 11.5°F-11.4°C 6.8°F-14.0°C 81% Calm Calm -- 30.64 in1037.6 mb 0.00 in0.0 mm 0.00 in0.0 mm 0.00 in0.0 mm
06:30 AM 11.6°F-11.3°C 6.6°F-14.1°C 80% Calm Calm -- 30.64 in1037.6 mb 0.00 in0.0 mm 0.00 in0.0 mm 0.00 in0.0 mm
06:20 AM 12.1°F-11.1°C 6.8°F-14.0°C 79% Calm Calm -- 30.64 in1037.6 mb 0.00 in0.0 mm 0.00 in0.0 mm 0.00 in0.0 mm
06:10 AM 12.6°F-10.8°C 6.8°F-14.0°C 77% Calm Calm -- 30.63 in1037.3 mb 0.00 in0.0 mm 0.00 in0.0 mm 0.00 in0.0 mm
06:00 AM 13.3°F-10.4°C 7.1°F-13.8°C 76% Calm Calm -- 30.63 in1037.3 mb 0.00 in0.0 mm 0.00 in0.0 mm 0.00 in0.0 mm
05:50 AM 14.3°F-9.8°C 7.8°F-13.4°C 75% Calm Calm -- 30.62 in1036.9 mb 0.00 in0.0 mm 0.00 in0.0 mm 0.00 in0.0 mm
05:40 AM 15.5°F-9.2°C 8.7°F-12.9°C 74% Calm Calm 1.0 mph1.6 kmh 30.62 in1036.9 mb 0.00 in0.0 mm 0.00 in0.0 mm 0.00 in0.0 mm
05:30 AM 16.5°F-8.6°C 9.4°F-12.6°C 73% Calm Calm 1.0 mph1.6 kmh 30.63 in1037.3 mb 0.00 in0.0 mm 0.00 in0.0 mm 0.00 in0.0 mm
05:20 AM 16.0°F-8.9°C 9.5°F-12.5°C 75% Calm Calm 1.0 mph1.6 kmh 30.62 in1036.9 mb 0.00 in0.0 mm 0.00 in0.0 mm 0.00 in0.0 mm
05:10 AM 15.6°F-9.1°C 9.4°F-12.6°C 76% 1.0 mph SSW1.6 kmh SSW 2.0 mph3.2 kmh 30.62 in1036.9 mb 0.00 in0.0 mm 0.00 in0.0 mm 0.00 in0.0 mm
05:00 AM 15.7°F-9.1°C 9.8°F-12.3°C 77% Calm Calm -- 30.62 in1036.9 mb 0.00 in0.0 mm 0.00 in0.0 mm 0.00 in0.0 mm
04:50 AM 15.3°F-9.3°C 10.2°F-12.1°C 80% Calm Calm 1.0 mph1.6 kmh 30.62 in1036.9 mb 0.00 in0.0 mm 0.00 in0.0 mm 0.00 in0.0 mm
04:40 AM 13.7°F-10.2°C 8.7°F-12.9°C 80% Calm Calm -- 30.62 in1036.9 mb 0.00 in0.0 mm 0.00 in0.0 mm 0.00 in0.0 mm
04:30 AM 13.8°F-10.1°C 8.2°F-13.2°C 78% Calm Calm -- 30.62 in1036.9 mb 0.00 in0.0 mm 0.00 in0.0 mm 0.00 in0.0 mm
04:20 AM 14.5°F-9.7°C 9.2°F-12.7°C 79% Calm Calm -- 30.62 in1036.9 mb 0.00 in0.0 mm 0.00 in0.0 mm 0.00 in0.0 mm
04:10 AM 15.0°F-9.4°C 8.8°F-12.9°C 76% Calm Calm -- 30.62 in1036.9 mb 0.00 in0.0 mm 0.00 in0.0 mm 0.00 in0.0 mm
04:00 AM 15.9°F-8.9°C 9.4°F-12.6°C 75% Calm Calm -- 30.62 in1036.9 mb 0.00 in0.0 mm 0.00 in0.0 mm 0.00 in0.0 mm
03:50 AM 16.8°F-8.4°C 9.9°F-12.3°C 74% Calm Calm 1.0 mph1.6 kmh 30.62 in1036.9 mb 0.00 in0.0 mm 0.00 in0.0 mm 0.00 in0.0 mm
03:40 AM 17.8°F-7.9°C 10.9°F-11.7°C 74% Calm Calm 1.0 mph1.6 kmh 30.62 in1036.9 mb 0.00 in0.0 mm 0.00 in0.0 mm 0.00 in0.0 mm
03:30 AM 18.0°F-7.8°C 11.1°F-11.6°C 74% Calm Calm -- 30.62 in1036.9 mb 0.00 in0.0 mm 0.00 in0.0 mm 0.00 in0.0 mm
03:20 AM 17.9°F-7.8°C 11.0°F-11.7°C 74% Calm Calm -- 30.61 in1036.6 mb 0.00 in0.0 mm 0.00 in0.0 mm 0.00 in0.0 mm
03:10 AM 18.4°F-7.6°C 10.6°F-11.9°C 71% Calm Calm -- 30.62 in1036.9 mb 0.00 in0.0 mm 0.00 in0.0 mm 0.00 in0.0 mm
03:00 AM 18.9°F-7.3°C 10.7°F-11.8°C 70% 1.0 mph WSW1.6 kmh WSW 2.0 mph3.2 kmh 30.62 in1036.9 mb 0.00 in0.0 mm 0.00 in0.0 mm 0.00 in0.0 mm
02:50 AM 19.3°F-7.1°C 10.8°F-11.8°C 69% 2.0 mph WSW3.2 kmh WSW 3.0 mph4.8 kmh 30.62 in1036.9 mb 0.00 in0.0 mm 0.00 in0.0 mm 0.00 in0.0 mm
02:40 AM 20.7°F-6.3°C 11.5°F-11.4°C 67% 1.0 mph W1.6 kmh W 2.0 mph3.2 kmh 30.62 in1036.9 mb 0.00 in0.0 mm 0.00 in0.0 mm 0.00 in0.0 mm
02:30 AM 21.9°F-5.6°C 11.6°F-11.3°C 64% 1.0 mph S1.6 kmh S 2.0 mph3.2 kmh 30.62 in1036.9 mb 0.00 in0.0 mm 0.00 in0.0 mm 0.00 in0.0 mm
02:20 AM 22.4°F-5.3°C 12.1°F-11.1°C 64% 1.0 mph S1.6 kmh S 2.0 mph3.2 kmh 30.62 in1036.9 mb 0.00 in0.0 mm 0.00 in0.0 mm 0.00 in0.0 mm
02:10 AM 22.6°F-5.2°C 12.2°F-11.0°C 64% 2.0 mph S3.2 kmh S 4.0 mph6.4 kmh 30.61 in1036.6 mb 0.00 in0.0 mm 0.00 in0.0 mm 0.00 in0.0 mm
02:00 AM 23.1°F-4.9°C 12.4°F-10.9°C 63% 3.0 mph S4.8 kmh S 5.0 mph8.0 kmh 30.61 in1036.6 mb 0.00 in0.0 mm 0.00 in0.0 mm 0.00 in0.0 mm
01:50 AM 23.5°F-4.7°C 12.7°F-10.7°C 63% 4.0 mph S6.4 kmh S 6.0 mph9.7 kmh 30.61 in1036.6 mb 0.00 in0.0 mm 0.00 in0.0 mm 0.00 in0.0 mm
01:40 AM 23.1°F-4.9°C 12.4°F-10.9°C 63% 3.0 mph S4.8 kmh S 5.0 mph8.0 kmh 30.61 in1036.6 mb 0.00 in0.0 mm 0.00 in0.0 mm 0.00 in0.0 mm
01:30 AM 22.7°F-5.2°C 12.7°F-10.7°C 65% 3.0 mph S4.8 kmh S 5.0 mph8.0 kmh 30.61 in1036.6 mb 0.00 in0.0 mm 0.00 in0.0 mm 0.00 in0.0 mm
01:20 AM 22.4°F-5.3°C 12.4°F-10.9°C 65% 3.0 mph S4.8 kmh S 5.0 mph8.0 kmh 30.61 in1036.6 mb 0.00 in0.0 mm 0.00 in0.0 mm 0.00 in0.0 mm
01:10 AM 22.7°F-5.2°C 12.7°F-10.7°C 65% 3.0 mph S4.8 kmh S 5.0 mph8.0 kmh 30.61 in1036.6 mb 0.00 in0.0 mm 0.00 in0.0 mm 0.00 in0.0 mm
01:00 AM 22.5°F-5.3°C 12.5°F-10.8°C 65% 3.0 mph S4.8 kmh S 5.0 mph8.0 kmh 30.61 in1036.6 mb 0.00 in0.0 mm 0.00 in0.0 mm 0.00 in0.0 mm
12:50 AM 22.3°F-5.4°C 12.7°F-10.7°C 66% 4.0 mph S6.4 kmh S 5.0 mph8.0 kmh 30.61 in1036.6 mb 0.00 in0.0 mm 0.00 in0.0 mm 0.00 in0.0 mm
12:40 AM 22.2°F-5.4°C 12.6°F-10.8°C 66% 4.0 mph S6.4 kmh S 6.0 mph9.7 kmh 30.61 in1036.6 mb 0.00 in0.0 mm 0.00 in0.0 mm 0.00 in0.0 mm
12:30 AM 22.3°F-5.4°C 12.7°F-10.7°C 66% 4.0 mph S6.4 kmh S 6.0 mph9.7 kmh 30.62 in1036.9 mb 0.00 in0.0 mm 0.00 in0.0 mm 0.00 in0.0 mm
12:20 AM 22.1°F-5.5°C 12.5°F-10.8°C 66% 5.0 mph S8.0 kmh S 9.0 mph14.5 kmh 30.62 in1036.9 mb 0.00 in0.0 mm 0.00 in0.0 mm 0.00 in0.0 mm
12:10 AM 21.1°F-6.1°C 12.2°F-11.0°C 68% 4.0 mph SSE6.4 kmh SSE 7.0 mph11.3 kmh 30.62 in1036.9 mb 0.00 in0.0 mm 0.00 in0.0 mm 0.00 in0.0 mm
12:00 AM 19.5°F-6.9°C 11.3°F-11.5°C 70% 2.0 mph S3.2 kmh S 3.0 mph4.8 kmh 30.62 in1036.9 mb 0.00 in0.0 mm 0.00 in0.0 mm 0.00 in0.0 mm